createdAt,value
2023-08-29T00:00:46.691Z,3.70
2023-08-29T00:03:29.179Z,3.50
2023-08-29T00:06:04.993Z,4.00
2023-08-29T00:08:36.349Z,3.40
2023-08-29T00:11:05.314Z,3.20
2023-08-29T00:13:33.443Z,3.30
2023-08-29T00:16:01.894Z,3.10
2023-08-29T00:18:29.996Z,3.20
2023-08-29T00:20:58.330Z,3.30
2023-08-29T00:23:26.470Z,3.70
2023-08-29T00:25:54.599Z,3.30
2023-08-29T00:28:23.091Z,3.60
2023-08-29T00:35:48.696Z,3.20
2023-08-29T00:38:16.790Z,3.30
2023-08-29T00:40:45.579Z,3.90
2023-08-29T00:43:13.698Z,3.40
2023-08-29T00:45:43.629Z,3.30
2023-08-29T00:48:13.750Z,3.70
2023-08-29T00:50:42.893Z,3.20
2023-08-29T00:53:12.110Z,3.20
2023-08-29T00:55:40.707Z,2.80
2023-08-29T00:58:09.223Z,2.90
2023-08-29T01:00:38.016Z,3.40
2023-08-29T01:03:06.566Z,3.50
2023-08-29T01:05:35.256Z,3.00
2023-08-29T01:08:05.528Z,3.00
2023-08-29T01:10:45.949Z,3.00
2023-08-29T01:13:23.412Z,3.60
2023-08-29T01:15:56.372Z,3.60
2023-08-29T01:18:28.334Z,3.50
2023-08-29T01:21:03.990Z,3.60
2023-08-29T01:23:42.187Z,3.20
2023-08-29T01:26:18.048Z,3.30
2023-08-29T01:28:47.882Z,3.00
2023-08-29T01:31:17.139Z,3.20
2023-08-29T01:33:45.315Z,3.30
2023-08-29T01:36:13.428Z,3.50
2023-08-29T01:38:41.507Z,3.10
2023-08-29T01:41:09.648Z,3.50
2023-08-29T01:43:37.663Z,3.50
2023-08-29T01:46:05.718Z,3.10
2023-08-29T01:48:35.001Z,3.20
2023-08-29T01:51:03.861Z,3.40
2023-08-29T01:53:32.190Z,3.00
2023-08-29T01:56:01.773Z,3.90
2023-08-29T01:58:30.674Z,3.60
2023-08-29T02:01:09.947Z,4.00
2023-08-29T02:03:48.621Z,3.80
2023-08-29T02:06:16.859Z,3.50
2023-08-29T02:08:45.982Z,3.00
2023-08-29T02:11:14.259Z,3.30
2023-08-29T02:13:42.495Z,3.10
2023-08-29T02:16:10.718Z,3.30
2023-08-29T02:18:38.856Z,4.00
2023-08-29T02:21:06.955Z,3.00
2023-08-29T02:23:35.104Z,3.50
2023-08-29T02:26:04.376Z,3.50
2023-08-29T02:28:37.044Z,3.40
2023-08-29T02:31:09.920Z,3.90
2023-08-29T02:33:39.813Z,4.00
2023-08-29T02:36:08.470Z,3.30
2023-08-29T02:41:04.866Z,3.60
2023-08-29T02:43:34.224Z,3.70
2023-08-29T02:46:02.325Z,3.60
2023-08-29T02:48:30.765Z,4.20
2023-08-29T02:53:26.938Z,3.50
2023-08-29T02:55:55.246Z,3.30
2023-08-29T02:58:23.411Z,4.10
2023-08-29T03:00:58.657Z,3.40
2023-08-29T03:03:27.967Z,3.40
2023-08-29T03:06:00.033Z,3.40
2023-08-29T03:08:28.645Z,3.00
2023-08-29T03:10:57.953Z,3.50
2023-08-29T03:13:26.087Z,3.70
2023-08-29T03:15:54.325Z,3.70
2023-08-29T03:18:22.647Z,3.20
2023-08-29T03:20:51.791Z,3.30
2023-08-29T03:23:20.221Z,3.70
2023-08-29T03:25:49.146Z,4.00
2023-08-29T03:28:17.325Z,3.70
2023-08-29T03:30:46.325Z,3.50
2023-08-29T03:33:14.617Z,4.10
2023-08-29T03:38:11.329Z,3.80
2023-08-29T03:40:39.420Z,3.90
2023-08-29T03:43:07.553Z,3.50
2023-08-29T03:45:35.572Z,3.60
2023-08-29T03:48:12.763Z,4.00
2023-08-29T03:50:44.073Z,3.70
2023-08-29T03:53:12.471Z,3.30
2023-08-29T03:58:09.431Z,3.30
2023-08-29T04:03:07.772Z,4.10
2023-08-29T04:05:38.247Z,3.30
2023-08-29T04:08:07.734Z,3.20
2023-08-29T04:10:40.784Z,3.90
2023-08-29T04:13:09.808Z,3.90
2023-08-29T04:15:38.706Z,4.70
2023-08-29T04:18:07.652Z,4.60
2023-08-29T04:20:36.161Z,4.60
2023-08-29T04:23:05.496Z,3.40
2023-08-29T04:25:38.023Z,3.90
2023-08-29T04:28:07.830Z,3.60
2023-08-29T04:30:37.112Z,3.40
2023-08-29T04:33:06.179Z,4.50
2023-08-29T04:35:35.659Z,4.20
2023-08-29T04:38:05.386Z,4.50
2023-08-29T04:40:34.018Z,4.70
2023-08-29T04:43:03.232Z,4.60
2023-08-29T04:45:31.971Z,4.50
2023-08-29T04:48:00.777Z,8.10
2023-08-29T04:53:00.870Z,4.70
2023-08-29T04:57:59.656Z,4.80
2023-08-29T05:00:30.153Z,4.20
2023-08-29T05:02:58.921Z,4.60
2023-08-29T05:05:27.472Z,4.50
2023-08-29T05:07:56.050Z,6.00
2023-08-29T05:10:27.418Z,4.80
2023-08-29T05:12:56.039Z,4.60
2023-08-29T05:15:25.289Z,4.50
2023-08-29T05:17:54.233Z,5.20
2023-08-29T05:20:22.850Z,7.60
2023-08-29T05:22:51.756Z,3.60
2023-08-29T05:25:20.288Z,4.60
2023-08-29T05:27:48.929Z,4.90
2023-08-29T05:32:45.875Z,4.30
2023-08-29T05:35:14.449Z,5.00
2023-08-29T05:37:43.240Z,9.50
2023-08-29T05:40:12.191Z,4.80
2023-08-29T05:42:40.817Z,4.80
2023-08-29T05:45:09.823Z,5.60
2023-08-29T05:47:38.344Z,5.00
2023-08-29T05:50:07.933Z,5.00
2023-08-29T05:52:36.740Z,6.20
2023-08-29T05:55:06.454Z,5.80
2023-08-29T05:57:35.254Z,3.80
2023-08-29T06:00:07.242Z,4.70
2023-08-29T06:02:42.913Z,4.90
2023-08-29T06:05:11.642Z,5.10
2023-08-29T06:07:40.363Z,4.80
2023-08-29T06:12:37.581Z,5.50
2023-08-29T06:17:35.931Z,6.70
2023-08-29T06:20:04.952Z,8.70
2023-08-29T06:22:34.404Z,6.00
2023-08-29T06:25:03.035Z,5.50
2023-08-29T06:27:32.096Z,5.30
2023-08-29T06:30:01.389Z,4.40
2023-08-29T06:34:59.393Z,4.50
2023-08-29T06:37:28.182Z,5.30
2023-08-29T06:39:57.055Z,5.40
2023-08-29T06:42:25.716Z,5.10
2023-08-29T06:44:58.575Z,5.60
2023-08-29T06:47:27.226Z,7.40
2023-08-29T06:49:56.624Z,5.00
2023-08-29T06:52:25.240Z,5.20
2023-08-29T06:54:54.105Z,5.20
2023-08-29T06:57:23.192Z,5.70
2023-08-29T06:59:51.653Z,4.90
2023-08-29T07:02:20.216Z,5.20
2023-08-29T07:07:19.115Z,5.50
2023-08-29T07:09:47.792Z,5.80
2023-08-29T07:12:17.263Z,4.80
2023-08-29T07:14:46.776Z,5.50
2023-08-29T07:17:15.775Z,5.40
2023-08-29T07:19:44.447Z,5.10
2023-08-29T07:24:45.135Z,4.70
2023-08-29T07:27:13.894Z,4.80
2023-08-29T07:29:43.026Z,4.90
2023-08-29T07:32:11.786Z,4.50
2023-08-29T07:34:41.819Z,4.80
2023-08-29T07:37:10.940Z,4.90
2023-08-29T07:39:39.815Z,4.80
2023-08-29T07:42:08.843Z,14.60
2023-08-29T07:44:37.429Z,6.40
2023-08-29T07:47:15.208Z,4.70
2023-08-29T07:49:44.885Z,4.60
2023-08-29T07:52:13.928Z,4.90
2023-08-29T07:54:43.504Z,5.20
2023-08-29T07:57:12.060Z,5.50
2023-08-29T07:59:41.433Z,5.30
2023-08-29T08:02:10.029Z,5.20
2023-08-29T08:04:38.694Z,4.90
2023-08-29T08:07:07.216Z,6.10
2023-08-29T08:09:36.111Z,5.20
2023-08-29T08:12:05.568Z,5.80
2023-08-29T08:14:34.171Z,5.80
2023-08-29T08:17:02.740Z,6.20
2023-08-29T08:19:31.528Z,5.60
2023-08-29T08:22:00.236Z,5.90
2023-08-29T08:24:28.810Z,5.30
2023-08-29T08:26:57.870Z,5.10
2023-08-29T08:29:27.017Z,6.50
2023-08-29T08:31:55.889Z,5.90
2023-08-29T08:34:24.496Z,5.30
2023-08-29T08:36:52.975Z,6.00
2023-08-29T08:39:22.788Z,6.50
2023-08-29T08:41:52.991Z,6.80
2023-08-29T08:44:23.308Z,6.20
2023-08-29T08:46:54.209Z,6.20
2023-08-29T08:49:23.023Z,6.70
2023-08-29T08:51:52.096Z,6.10
2023-08-29T08:54:20.726Z,5.60
2023-08-29T08:56:49.539Z,5.60
2023-08-29T08:59:19.147Z,6.90
2023-08-29T09:01:47.718Z,26.60
2023-08-29T09:04:16.532Z,15.20
2023-08-29T09:06:45.138Z,7.70
2023-08-29T09:09:26.766Z,8.60
2023-08-29T09:11:57.505Z,6.10
2023-08-29T09:14:27.169Z,6.70
2023-08-29T09:17:00.604Z,10.70
2023-08-29T09:19:36.506Z,6.60
2023-08-29T09:22:05.198Z,9.10
2023-08-29T09:24:37.092Z,11.10
2023-08-29T09:27:10.942Z,12.80
2023-08-29T09:29:39.099Z,10.10
2023-08-29T09:34:45.593Z,8.10
2023-08-29T09:37:14.205Z,7.30
2023-08-29T09:39:42.700Z,9.40
2023-08-29T09:42:11.720Z,6.70
2023-08-29T09:44:41.646Z,7.90
2023-08-29T09:47:12.012Z,8.90
2023-08-29T09:49:43.898Z,7.30
2023-08-29T09:52:13.513Z,6.90
2023-08-29T09:54:48.516Z,6.90
2023-08-29T09:57:23.052Z,7.50
2023-08-29T09:59:58.333Z,8.30
2023-08-29T10:02:31.297Z,7.40
2023-08-29T10:05:10.111Z,8.50
2023-08-29T10:07:48.140Z,8.00
2023-08-29T10:10:16.946Z,8.10
2023-08-29T10:12:47.357Z,7.80
2023-08-29T10:15:15.909Z,6.80
2023-08-29T10:17:45.809Z,7.80
2023-08-29T10:20:15.111Z,6.80
2023-08-29T10:22:48.455Z,9.90
2023-08-29T10:25:20.070Z,8.10
2023-08-29T10:27:49.510Z,8.40
2023-08-29T10:30:18.197Z,7.60
2023-08-29T10:32:47.881Z,8.60
2023-08-29T10:35:20.720Z,7.90
2023-08-29T10:37:53.146Z,7.40
2023-08-29T10:40:22.587Z,8.10
2023-08-29T10:42:58.732Z,9.60
2023-08-29T10:45:55.311Z,10.70
2023-08-29T10:48:44.006Z,7.20
2023-08-29T10:51:14.963Z,7.60
2023-08-29T10:54:06.622Z,6.40
2023-08-29T10:56:46.594Z,8.60
2023-08-29T10:59:36.327Z,7.10
2023-08-29T11:02:28.496Z,9.50
2023-08-29T11:05:06.106Z,7.70
2023-08-29T11:07:36.078Z,7.00
2023-08-29T11:10:23.805Z,8.20
2023-08-29T11:13:07.872Z,8.00
2023-08-29T11:15:51.436Z,7.30
2023-08-29T11:18:22.537Z,8.20
2023-08-29T11:20:51.140Z,9.30
2023-08-29T11:23:20.471Z,13.20
2023-08-29T11:25:52.850Z,10.20
2023-08-29T11:28:21.418Z,11.50
2023-08-29T11:30:50.341Z,9.10
2023-08-29T11:33:21.272Z,8.80
2023-08-29T11:35:50.174Z,8.60
2023-08-29T11:38:18.384Z,7.10
2023-08-29T11:40:58.409Z,8.80
2023-08-29T11:44:08.216Z,9.50
2023-08-29T11:46:23.093Z,8.40
2023-08-29T11:48:51.182Z,8.30
2023-08-29T11:51:19.359Z,8.50
2023-08-29T11:53:51.436Z,8.40
2023-08-29T11:56:19.641Z,7.30
2023-08-29T11:58:51.181Z,7.30
2023-08-29T12:01:19.904Z,7.40
2023-08-29T12:03:50.898Z,8.10
2023-08-29T12:06:19.652Z,6.80
2023-08-29T12:08:47.809Z,10.80
2023-08-29T12:11:18.323Z,8.10
2023-08-29T12:14:01.793Z,7.40
2023-08-29T12:16:30.333Z,6.70
2023-08-29T12:19:07.360Z,9.90
2023-08-29T12:21:35.710Z,6.80
2023-08-29T12:24:11.657Z,6.40
2023-08-29T12:26:39.968Z,4.90
2023-08-29T12:29:08.293Z,4.70
2023-08-29T12:31:36.418Z,6.00
2023-08-29T12:34:05.429Z,6.10
2023-08-29T12:36:33.867Z,6.10
2023-08-29T12:39:02.266Z,6.30
2023-08-29T12:41:31.033Z,6.60
2023-08-29T12:44:00.451Z,5.60
2023-08-29T12:46:30.705Z,5.90
2023-08-29T12:48:59.036Z,6.20
2023-08-29T12:51:27.334Z,5.30
2023-08-29T12:53:55.603Z,6.80
2023-08-29T12:56:23.970Z,6.70
2023-08-29T12:58:54.243Z,6.00
2023-08-29T13:01:22.623Z,6.30
2023-08-29T13:03:50.921Z,8.60
2023-08-29T13:06:19.412Z,7.10
2023-08-29T13:08:47.768Z,5.00
2023-08-29T13:11:16.159Z,7.00
2023-08-29T13:16:19.416Z,8.00
2023-08-29T13:18:48.370Z,10.10
2023-08-29T13:21:16.654Z,9.80
2023-08-29T13:23:44.920Z,11.00
2023-08-29T13:26:13.249Z,10.80
2023-08-29T13:28:41.380Z,8.60
2023-08-29T13:31:09.470Z,9.70
2023-08-29T13:33:37.633Z,8.50
2023-08-29T13:36:07.025Z,8.80
2023-08-29T13:38:35.378Z,9.20
2023-08-29T13:41:03.541Z,8.40
2023-08-29T13:43:31.803Z,11.10
2023-08-29T13:46:00.020Z,8.30
2023-08-29T13:48:28.111Z,9.60
2023-08-29T13:50:56.270Z,7.00
2023-08-29T13:53:24.856Z,7.10
2023-08-29T13:58:22.022Z,5.40
2023-08-29T14:00:51.732Z,8.20
2023-08-29T14:03:29.444Z,9.20
2023-08-29T14:06:05.492Z,8.20
2023-08-29T14:08:33.571Z,7.20
2023-08-29T14:11:07.544Z,6.30
2023-08-29T14:13:36.272Z,7.30
2023-08-29T14:16:04.942Z,7.10
2023-08-29T14:18:37.141Z,6.10
2023-08-29T14:21:05.691Z,6.20
2023-08-29T14:26:02.053Z,5.60
2023-08-29T14:28:30.408Z,8.80
2023-08-29T14:30:59.213Z,8.10
2023-08-29T14:33:27.301Z,8.20
2023-08-29T14:35:56.292Z,8.80
2023-08-29T14:38:24.628Z,9.20
2023-08-29T14:40:52.881Z,7.00
2023-08-29T14:43:21.226Z,10.50
2023-08-29T14:48:17.923Z,7.20
2023-08-29T14:53:14.489Z,7.50
2023-08-29T14:55:42.669Z,7.40
2023-08-29T14:58:10.781Z,6.60
2023-08-29T15:00:43.699Z,8.10
2023-08-29T15:03:14.460Z,7.10
2023-08-29T15:05:43.315Z,7.10
2023-08-29T15:13:08.708Z,6.20
2023-08-29T15:15:38.611Z,6.30
2023-08-29T15:18:06.973Z,5.70
2023-08-29T15:20:37.517Z,6.50
2023-08-29T15:23:09.129Z,7.10
2023-08-29T15:25:37.273Z,7.40
2023-08-29T15:28:05.869Z,8.90
2023-08-29T15:30:34.402Z,7.40
2023-08-29T15:33:03.132Z,6.60
2023-08-29T15:35:31.511Z,7.00
2023-08-29T15:37:59.719Z,6.30
2023-08-29T15:40:27.930Z,6.60
2023-08-29T15:45:25.619Z,7.10
2023-08-29T15:47:54.250Z,6.60
2023-08-29T15:50:22.482Z,5.80
2023-08-29T15:52:50.633Z,20.90
2023-08-29T15:57:47.638Z,7.50
2023-08-29T16:00:16.506Z,8.50
2023-08-29T16:02:47.803Z,7.00
2023-08-29T16:05:16.277Z,8.90
2023-08-29T16:07:45.409Z,8.40
2023-08-29T16:10:16.086Z,7.60
2023-08-29T16:12:47.096Z,7.70
2023-08-29T16:15:17.538Z,8.00
2023-08-29T16:17:46.099Z,9.10
2023-08-29T16:20:14.816Z,7.70
2023-08-29T16:22:43.168Z,8.50
2023-08-29T16:32:37.028Z,8.40
2023-08-29T16:35:05.522Z,8.20
2023-08-29T16:37:33.740Z,7.80
2023-08-29T16:40:01.923Z,6.70
2023-08-29T16:42:33.903Z,7.20
2023-08-29T16:45:02.319Z,9.40
2023-08-29T16:47:32.305Z,7.50
2023-08-29T16:50:00.877Z,8.50
2023-08-29T16:59:55.307Z,10.10
2023-08-29T17:02:24.532Z,10.50
2023-08-29T17:04:54.318Z,10.30
2023-08-29T17:07:23.535Z,9.40
2023-08-29T17:09:53.054Z,13.30
2023-08-29T17:12:24.182Z,12.10
2023-08-29T17:14:53.264Z,10.30
2023-08-29T17:17:21.916Z,10.70
2023-08-29T17:19:50.767Z,9.30
2023-08-29T17:22:19.203Z,8.50
2023-08-29T17:27:16.071Z,8.80
2023-08-29T17:29:44.908Z,9.60
2023-08-29T17:32:13.521Z,9.00
2023-08-29T17:34:43.554Z,6.50
2023-08-29T17:37:12.131Z,7.50
2023-08-29T17:42:09.013Z,7.00
2023-08-29T17:44:37.607Z,8.50
2023-08-29T17:49:35.496Z,7.40
2023-08-29T17:52:04.070Z,6.30
2023-08-29T17:54:32.569Z,7.80
2023-08-29T17:59:29.667Z,9.60
2023-08-29T18:04:26.420Z,7.80
2023-08-29T18:11:51.714Z,7.30
2023-08-29T18:16:51.045Z,7.90
2023-08-29T18:19:20.744Z,8.20
2023-08-29T18:21:49.235Z,6.40
2023-08-29T18:24:17.765Z,6.90
2023-08-29T18:26:46.273Z,6.20
2023-08-29T18:31:42.981Z,5.10
2023-08-29T18:36:40.023Z,3.80
2023-08-29T18:39:09.147Z,4.60
2023-08-29T18:41:37.704Z,4.40
2023-08-29T18:46:34.475Z,4.80
2023-08-29T18:51:31.192Z,4.20
2023-08-29T18:56:27.950Z,5.50
2023-08-29T18:58:56.402Z,5.10
2023-08-29T19:03:53.386Z,5.40
2023-08-29T19:08:51.656Z,5.00
2023-08-29T19:11:20.111Z,5.10
2023-08-29T19:13:48.782Z,6.40
2023-08-29T19:16:17.376Z,5.40
2023-08-29T19:21:14.478Z,5.20
2023-08-29T19:23:43.181Z,6.00
2023-08-29T19:26:11.588Z,5.20
2023-08-29T19:31:08.497Z,6.40
2023-08-29T19:33:36.879Z,6.00
2023-08-29T19:36:18.703Z,5.00
2023-08-29T19:38:47.342Z,5.00
2023-08-29T19:43:44.538Z,4.80
2023-08-29T19:46:13.255Z,4.70
2023-08-29T19:53:38.623Z,4.10
2023-08-29T19:56:07.396Z,4.90
2023-08-29T20:01:07.608Z,4.30
2023-08-29T20:03:38.088Z,4.10
2023-08-29T20:06:06.639Z,4.60
2023-08-29T20:11:04.687Z,4.20
2023-08-29T20:13:34.066Z,4.50
2023-08-29T20:16:06.764Z,4.70
2023-08-29T20:18:35.327Z,5.70
2023-08-29T20:23:36.032Z,4.90
2023-08-29T20:26:11.097Z,5.40
2023-08-29T20:28:39.552Z,5.20
2023-08-29T20:31:10.169Z,5.10
2023-08-29T20:33:38.781Z,5.20
2023-08-29T20:38:35.575Z,5.80
2023-08-29T20:41:03.990Z,6.30
2023-08-29T20:43:33.773Z,5.20
2023-08-29T20:46:02.713Z,5.30
2023-08-29T20:48:31.431Z,5.90
2023-08-29T20:51:02.320Z,5.20
2023-08-29T20:53:32.004Z,5.70
2023-08-29T20:56:00.501Z,5.80
2023-08-29T20:58:28.971Z,5.30
2023-08-29T21:00:59.166Z,4.90
2023-08-29T21:03:30.040Z,5.00
2023-08-29T21:05:59.482Z,5.60
2023-08-29T21:08:28.618Z,4.70
2023-08-29T21:10:57.351Z,6.10
2023-08-29T21:13:26.095Z,7.80
2023-08-29T21:15:54.444Z,6.30
2023-08-29T21:18:22.900Z,6.70
2023-08-29T21:23:23.594Z,5.80
2023-08-29T21:25:52.601Z,5.40
2023-08-29T21:28:24.179Z,5.00
2023-08-29T21:30:54.478Z,5.10
2023-08-29T21:33:24.440Z,4.90
2023-08-29T21:35:53.046Z,4.30
2023-08-29T21:38:22.202Z,4.60
2023-08-29T21:40:50.996Z,4.80
2023-08-29T21:43:22.539Z,4.50
2023-08-29T21:45:55.976Z,4.60
2023-08-29T21:48:25.996Z,4.20
2023-08-29T21:50:54.837Z,4.60
2023-08-29T21:55:53.167Z,4.50
2023-08-29T21:58:21.859Z,4.60
2023-08-29T22:00:54.948Z,5.10
2023-08-29T22:03:25.145Z,5.10
2023-08-29T22:05:53.962Z,4.70
2023-08-29T22:10:52.357Z,5.00
2023-08-29T22:13:20.776Z,5.30
2023-08-29T22:15:50.774Z,5.00
2023-08-29T22:18:19.329Z,6.30
2023-08-29T22:20:50.496Z,5.30
2023-08-29T22:23:18.955Z,5.80
2023-08-29T22:25:47.469Z,5.80
2023-08-29T22:30:44.157Z,5.50
2023-08-29T22:33:12.734Z,5.40
2023-08-29T22:38:12.356Z,5.50
2023-08-29T22:40:41.156Z,4.70
2023-08-29T22:43:09.616Z,5.60
2023-08-29T22:48:06.992Z,7.40
2023-08-29T22:50:35.750Z,5.20
2023-08-29T22:53:05.249Z,5.30
2023-08-29T22:55:36.062Z,5.30
2023-08-29T22:58:05.298Z,4.70
2023-08-29T23:00:33.719Z,5.20
2023-08-29T23:03:02.239Z,5.40
2023-08-29T23:07:59.908Z,6.00
2023-08-29T23:10:28.424Z,5.50
2023-08-29T23:12:57.178Z,5.90
2023-08-29T23:15:26.387Z,6.30
2023-08-29T23:17:54.793Z,5.80
2023-08-29T23:20:23.202Z,4.90
2023-08-29T23:22:51.716Z,5.80
2023-08-29T23:25:20.232Z,5.20
2023-08-29T23:30:17.234Z,5.30
2023-08-29T23:32:47.741Z,5.70
2023-08-29T23:35:16.850Z,5.80
2023-08-29T23:37:46.988Z,5.90
2023-08-29T23:40:15.447Z,6.50
2023-08-29T23:45:12.911Z,5.70
2023-08-29T23:47:41.375Z,5.70
2023-08-29T23:50:10.637Z,5.90
2023-08-29T23:52:39.174Z,6.30
2023-08-29T23:55:07.856Z,6.40
2023-08-29T23:57:36.333Z,5.30
